Terminal Aerodrome Forecast
Issued by NWS Upton, NY

Home | Current Version | Previous Version | Text Only | Print | Product List | Glossary On
Versions: 1 2 3 4 5 6 7 8 9 10 11 12 13 14 15 16 17 18 19 20 21 22 23 24 25 26 27 28 29 30 31
000
FTUS41 KOKX 242300
TAFEWR
TAF
KEWR 242328Z 2500/2606 15005KT 1SM -RA BR OVC004 WS020/21050KT
     FM250100 18010KT 1/2SM -RA FG OVC002 WS020/23055KT
     FM250700 21015G21KT 1SM +RA BR BKN003 WS020/22055KT
     FM251000 27015G25KT P6SM SCT020 BKN080
     FM251400 28020G33KT P6SM SCT080 BKN250
     FM252200 28015G27KT P6SM SKC=

USA.gov is the U.S. government's official web portal to all federal, state and local government web resources and services.